Time;durP1;ratioP1;P1;durP2;ratioP2;P2;SDS_P1;SDS_P2;PMS_P1;PMS_P2;Temp;Humidity;BMP_temperature;BMP_pressure;BME280_temperature;BME280_humidity;BME280_pressure;Samples;Min_cycle;Max_cycle;Signal;HPM_P1;HPM_P2
2021/04/05 00:00:52;;;;;;;39.40;23.33;;;5.90;99.90;;;;;;4938127;29;20212;-82
2021/04/05 00:03:18;;;;;;;34.70;21.70;;;5.90;99.90;;;;;;4941191;29;20465;-82
2021/04/05 00:05:47;;;;;;;35.58;21.33;;;6.00;99.90;;;;;;4938408;29;20428;-83
2021/04/05 00:08:15;;;;;;;35.80;21.10;;;6.00;99.90;;;;;;4930696;29;20260;-83
2021/04/05 00:10:54;;;;;;;36.83;20.85;;;5.90;99.90;;;;;;4938244;29;20268;-83
2021/04/05 00:13:26;;;;;;;34.20;20.42;;;5.90;99.90;;;;;;4937757;29;20211;-83
2021/04/05 00:15:53;;;;;;;33.83;20.85;;;5.90;99.90;;;;;;4927761;29;20607;-83
2021/04/05 00:18:20;;;;;;;38.10;20.27;;;5.90;99.90;;;;;;4930168;29;20207;-82
2021/04/05 00:20:56;;;;;;;36.13;20.73;;;5.90;99.90;;;;;;4925836;29;20216;-83
2021/04/05 00:23:22;;;;;;;30.98;20.10;;;5.90;99.90;;;;;;4918790;29;20182;-83
2021/04/05 00:26:06;;;;;;;30.50;19.77;;;5.90;99.90;;;;;;4919932;29;20174;-83
2021/04/05 00:28:32;;;;;;;34.03;20.30;;;5.90;99.90;;;;;;4935931;29;20204;-83
2021/04/05 00:30:58;;;;;;;37.78;20.75;;;5.90;99.90;;;;;;4937855;29;20217;-83
2021/04/05 00:33:25;;;;;;;36.33;19.60;;;5.90;99.90;;;;;;4923195;29;20205;-83
2021/04/05 00:36:06;;;;;;;32.05;19.58;;;5.90;99.90;;;;;;4936124;29;20225;-83
2021/04/05 00:38:35;;;;;;;32.45;20.67;;;6.00;99.90;;;;;;4933678;29;20193;-83
2021/04/05 00:41:05;;;;;;;31.58;20.33;;;5.90;99.90;;;;;;4920656;29;20189;-84
2021/04/05 00:43:37;;;;;;;37.17;19.98;;;5.90;99.90;;;;;;4934925;29;20198;-83
2021/04/05 00:46:04;;;;;;;30.23;19.48;;;5.90;99.90;;;;;;4936216;29;20674;-82
2021/04/05 00:48:31;;;;;;;34.05;18.88;;;5.90;99.90;;;;;;4935400;29;20220;-83
2021/04/05 00:50:59;;;;;;;33.78;20.80;;;6.00;99.90;;;;;;4920522;29;20188;-83
2021/04/05 00:53:34;;;;;;;31.63;20.23;;;6.10;99.90;;;;;;4936481;29;20180;-83
2021/04/05 00:56:00;;;;;;;34.70;19.77;;;6.10;99.90;;;;;;4919920;29;20188;-83
2021/04/05 00:58:28;;;;;;;30.55;19.98;;;6.00;99.90;;;;;;4921446;29;20807;-83
2021/04/05 01:01:03;;;;;;;27.83;18.60;;;6.00;99.90;;;;;;4936246;29;20200;-82
2021/04/05 01:03:32;;;;;;;31.13;19.35;;;6.00;99.90;;;;;;4919971;29;20174;-83
2021/04/05 01:06:05;;;;;;;31.13;17.92;;;6.00;99.90;;;;;;4936445;29;20203;-83
2021/04/05 01:08:31;;;;;;;35.55;18.85;;;6.00;99.90;;;;;;4922572;29;20584;-83
2021/04/05 01:10:57;;;;;;;30.42;18.77;;;6.00;99.90;;;;;;4936947;29;20189;-83
2021/04/05 01:13:26;;;;;;;32.53;18.70;;;6.00;99.90;;;;;;4936858;29;20188;-83
2021/04/05 01:15:57;;;;;;;31.40;18.92;;;6.10;99.90;;;;;;4937253;29;20190;-83
2021/04/05 01:18:23;;;;;;;31.45;17.85;;;6.10;99.90;;;;;;4935150;29;20194;-83
2021/04/05 01:20:50;;;;;;;33.95;19.02;;;6.10;99.90;;;;;;4946470;29;20229;-83
2021/04/05 01:23:20;;;;;;;29.13;18.40;;;6.10;99.90;;;;;;4956912;29;20255;-83
2021/04/05 01:25:47;;;;;;;30.95;16.90;;;6.10;99.90;;;;;;4921631;29;20209;-83
2021/04/05 01:28:13;;;;;;;36.42;17.73;;;6.10;99.90;;;;;;4937649;29;20223;-83
2021/04/05 01:30:47;;;;;;;33.10;17.83;;;6.10;99.90;;;;;;4935816;29;20222;-83
2021/04/05 01:33:26;;;;;;;31.52;17.98;;;6.10;99.90;;;;;;4902068;29;20220;-83
2021/04/05 01:36:12;;;;;;;37.63;18.20;;;6.10;99.90;;;;;;4918773;29;20515;-83
2021/04/05 01:38:50;;;;;;;25.77;16.30;;;6.20;99.90;;;;;;4917890;29;20189;-82
2021/04/05 01:41:23;;;;;;;33.17;18.13;;;6.20;99.90;;;;;;4937575;29;20178;-83
2021/04/05 01:43:52;;;;;;;33.67;17.85;;;6.20;99.90;;;;;;4917293;29;20189;-83
2021/04/05 01:46:19;;;;;;;25.02;17.15;;;6.20;99.90;;;;;;4924758;29;20190;-82
2021/04/05 01:48:46;;;;;;;35.08;17.08;;;6.20;99.90;;;;;;4936786;29;20218;-82
2021/04/05 01:51:17;;;;;;;30.45;17.75;;;6.30;99.90;;;;;;4920327;29;20730;-83
2021/04/05 01:53:49;;;;;;;33.78;16.75;;;6.20;99.90;;;;;;4937887;29;20178;-82
2021/04/05 01:56:17;;;;;;;26.15;16.52;;;6.20;99.90;;;;;;4918404;29;20173;-83
2021/04/05 01:58:46;;;;;;;27.30;15.93;;;6.20;99.90;;;;;;4922667;29;20269;-83
2021/04/05 02:01:16;;;;;;;28.55;16.60;;;6.20;99.90;;;;;;4936880;29;20533;-83
2021/04/05 02:03:47;;;;;;;28.02;17.70;;;6.20;99.90;;;;;;4940421;29;20682;-83
2021/04/05 02:06:27;;;;;;;32.75;18.20;;;6.20;99.90;;;;;;4955302;28;20522;-83
2021/04/05 02:08:56;;;;;;;42.53;17.45;;;6.20;99.90;;;;;;4950987;29;20199;-84
2021/04/05 02:11:29;;;;;;;31.17;19.10;;;6.20;99.90;;;;;;4936752;29;20184;-82
2021/04/05 02:13:58;;;;;;;31.00;17.98;;;6.20;99.90;;;;;;4943959;29;20164;-82
2021/04/05 02:16:28;;;;;;;30.73;17.38;;;6.30;99.90;;;;;;4954419;29;20172;-83
2021/04/05 02:18:55;;;;;;;27.20;18.70;;;6.30;99.90;;;;;;4948136;29;20194;-83
2021/04/05 02:21:26;;;;;;;35.17;18.42;;;6.50;99.90;;;;;;4938567;29;20330;-83
2021/04/05 02:23:55;;;;;;;33.30;19.23;;;6.40;99.90;;;;;;4938076;29;20195;-83
2021/04/05 02:26:24;;;;;;;33.88;18.25;;;6.40;99.90;;;;;;4938989;29;20200;-83
2021/04/05 02:29:01;;;;;;;35.45;19.38;;;6.30;99.90;;;;;;4932531;29;20238;-82
2021/04/05 02:31:31;;;;;;;34.30;18.23;;;6.40;99.90;;;;;;4942638;29;20191;-83
2021/04/05 02:34:00;;;;;;;36.67;20.02;;;6.40;99.90;;;;;;4950889;29;20518;-83
2021/04/05 02:36:33;;;;;;;30.42;17.95;;;6.40;99.90;;;;;;4935573;29;20240;-83
2021/04/05 02:39:01;;;;;;;35.90;19.05;;;6.50;99.90;;;;;;4923743;29;20232;-83
2021/04/05 02:41:32;;;;;;;33.20;20.10;;;6.50;99.90;;;;;;4938726;29;20207;-83
2021/04/05 02:43:59;;;;;;;35.25;19.20;;;6.40;99.90;;;;;;4954806;29;20188;-82
2021/04/05 02:46:29;;;;;;;34.30;20.90;;;6.40;99.90;;;;;;4923017;29;20207;-82
2021/04/05 02:49:01;;;;;;;35.25;20.65;;;6.40;99.90;;;;;;4953587;29;20656;-82
2021/04/05 02:51:27;;;;;;;43.47;21.02;;;6.50;99.90;;;;;;4955447;29;20183;-83
2021/04/05 02:53:56;;;;;;;37.95;19.45;;;6.50;99.90;;;;;;4954690;29;20188;-82
2021/04/05 02:56:23;;;;;;;40.83;22.77;;;6.40;99.90;;;;;;4955343;29;20184;-82
2021/04/05 02:58:52;;;;;;;38.88;22.48;;;6.40;99.90;;;;;;4937419;29;20192;-82
2021/04/05 03:01:21;;;;;;;37.90;20.33;;;6.50;99.90;;;;;;4936308;29;20206;-82
2021/04/05 03:03:48;;;;;;;37.75;20.55;;;6.50;99.90;;;;;;4935484;29;20222;-82
2021/04/05 03:06:22;;;;;;;34.78;19.98;;;6.50;99.90;;;;;;4940101;29;20569;-81
2021/04/05 03:08:48;;;;;;;31.90;19.38;;;6.50;99.90;;;;;;4955335;29;20208;-82
2021/04/05 03:11:17;;;;;;;34.83;19.75;;;6.50;99.90;;;;;;4936367;29;20182;-82
2021/04/05 03:13:50;;;;;;;35.30;20.02;;;6.50;99.90;;;;;;4936376;29;20252;-82
2021/04/05 03:16:23;;;;;;;34.55;19.02;;;6.60;99.90;;;;;;4954848;28;20503;-82
2021/04/05 03:18:50;;;;;;;36.87;17.60;;;6.60;99.90;;;;;;4959036;29;20608;-82
2021/04/05 03:21:18;;;;;;;30.92;17.25;;;6.60;99.90;;;;;;4917139;29;20478;-82
2021/04/05 03:23:47;;;;;;;38.73;18.00;;;6.70;99.90;;;;;;4921026;29;20626;-81
2021/04/05 03:26:16;;;;;;;32.45;18.08;;;6.80;99.90;;;;;;4956874;29;20458;-81
2021/04/05 03:28:45;;;;;;;34.75;17.55;;;6.90;99.90;;;;;;4958724;29;20228;-82
2021/04/05 03:31:21;;;;;;;30.90;17.17;;;6.90;99.90;;;;;;4924741;29;20187;-83
2021/04/05 03:34:11;;;;;;;29.60;16.00;;;6.90;99.90;;;;;;4923196;29;20173;-81
2021/04/05 03:36:42;;;;;;;28.57;16.63;;;7.00;99.90;;;;;;4922730;29;20595;-82
2021/04/05 03:39:15;;;;;;;34.92;17.25;;;6.90;99.90;;;;;;4954896;29;20459;-81
2021/04/05 03:42:08;;;;;;;35.05;17.08;;;7.00;99.90;;;;;;4940949;29;20518;-82
2021/04/05 03:44:48;;;;;;;27.63;16.60;;;7.00;99.90;;;;;;4920612;29;20199;-82
2021/04/05 03:47:39;;;;;;;31.92;17.88;;;7.10;99.90;;;;;;4926462;29;20174;-82
2021/04/05 03:50:39;;;;;;;30.17;16.60;;;6.90;99.90;;;;;;4941445;29;20233;-82
2021/04/05 03:53:15;;;;;;;27.35;14.98;;;7.00;99.90;;;;;;4958334;29;20182;-82
2021/04/05 03:55:49;;;;;;;29.03;16.03;;;7.00;99.90;;;;;;4923141;29;20287;-82
2021/04/05 03:58:19;;;;;;;30.80;16.30;;;7.00;99.90;;;;;;4953820;29;20487;-81
2021/04/05 04:00:49;;;;;;;32.63;16.97;;;6.90;99.90;;;;;;4936599;29;20194;-82
2021/04/05 04:03:20;;;;;;;28.30;15.02;;;6.90;99.90;;;;;;4938307;29;20555;-82
2021/04/05 04:05:58;;;;;;;35.00;16.40;;;7.00;99.90;;;;;;4939461;29;20179;-82
2021/04/05 04:08:40;;;;;;;28.80;17.02;;;7.00;99.90;;;;;;4935849;29;20320;-83
2021/04/05 04:11:09;;;;;;;29.30;15.68;;;7.00;99.90;;;;;;4922535;29;20617;-82
2021/04/05 04:13:40;;;;;;;26.60;15.13;;;7.00;99.90;;;;;;4938904;29;20280;-80
2021/04/05 04:16:12;;;;;;;30.30;16.90;;;7.00;99.90;;;;;;4947794;29;20182;-81
2021/04/05 04:18:39;;;;;;;28.67;16.10;;;7.10;99.90;;;;;;4958064;29;20625;-82
2021/04/05 04:21:09;;;;;;;25.35;15.65;;;7.00;99.90;;;;;;4956248;29;20876;-81
2021/04/05 04:23:37;;;;;;;29.23;15.05;;;7.10;99.90;;;;;;4957823;29;20200;-81
2021/04/05 04:26:04;;;;;;;32.13;16.20;;;7.00;99.90;;;;;;4920136;29;20688;-81
2021/04/05 04:28:30;;;;;;;30.10;16.10;;;7.00;99.90;;;;;;4955580;28;20666;-81
2021/04/05 04:31:01;;;;;;;29.52;15.40;;;6.90;99.90;;;;;;4931711;29;20457;-82
2021/04/05 04:33:29;;;;;;;37.20;16.67;;;7.00;99.90;;;;;;4930017;29;20177;-81
2021/04/05 04:35:56;;;;;;;25.60;15.23;;;7.10;99.90;;;;;;4957468;29;20416;-81
2021/04/05 04:38:26;;;;;;;27.92;17.10;;;7.10;99.90;;;;;;4956041;29;20183;-81
2021/04/05 04:40:54;;;;;;;28.73;16.27;;;7.00;99.90;;;;;;4955993;29;20195;-82
2021/04/05 04:43:20;;;;;;;34.05;18.60;;;7.00;99.90;;;;;;4927420;29;20276;-80
2021/04/05 04:45:49;;;;;;;29.20;16.92;;;7.00;99.90;;;;;;4938284;29;20250;-81
2021/04/05 04:48:17;;;;;;;25.77;16.67;;;7.00;99.90;;;;;;4950221;29;20213;-81
2021/04/05 04:50:43;;;;;;;37.83;15.47;;;7.00;99.90;;;;;;4930026;29;20444;-82
2021/04/05 04:53:09;;;;;;;31.27;17.10;;;7.00;99.90;;;;;;4938134;29;20512;-81
2021/04/05 04:55:40;;;;;;;30.20;15.15;;;7.00;99.90;;;;;;4932652;29;20440;-82
2021/04/05 04:58:09;;;;;;;26.80;15.93;;;7.00;99.90;;;;;;4945156;29;20222;-82
2021/04/05 05:00:35;;;;;;;24.65;15.52;;;7.00;99.90;;;;;;4956650;29;20218;-82
2021/04/05 05:03:01;;;;;;;32.05;16.38;;;7.00;99.90;;;;;;4937877;29;20188;-82
2021/04/05 05:05:34;;;;;;;36.27;17.20;;;7.10;99.90;;;;;;4938350;29;20558;-82
2021/04/05 05:08:00;;;;;;;29.10;16.53;;;7.00;99.90;;;;;;4920930;29;20439;-81
2021/04/05 05:10:27;;;;;;;27.17;16.13;;;7.00;99.90;;;;;;4936238;29;20433;-82
2021/04/05 05:12:53;;;;;;;31.87;17.63;;;7.00;99.90;;;;;;4948045;29;20497;-81
2021/04/05 05:15:21;;;;;;;28.52;17.15;;;7.00;99.90;;;;;;4952419;29;20442;-82
2021/04/05 05:17:50;;;;;;;30.38;17.17;;;7.00;99.90;;;;;;4937776;29;20513;-82
2021/04/05 05:20:20;;;;;;;28.83;17.95;;;7.00;99.90;;;;;;4940621;29;20196;-82
2021/04/05 05:22:52;;;;;;;25.55;17.30;;;7.00;99.90;;;;;;4956795;29;20181;-82
2021/04/05 05:25:20;;;;;;;28.35;17.05;;;7.10;99.90;;;;;;4927991;29;20205;-82
2021/04/05 05:27:55;;;;;;;33.97;18.40;;;7.10;99.90;;;;;;4937334;29;20237;-82
2021/04/05 05:30:21;;;;;;;35.42;19.10;;;7.00;99.90;;;;;;4941991;29;20183;-82
2021/04/05 05:32:49;;;;;;;36.95;18.65;;;7.10;99.90;;;;;;4938236;29;20196;-82
2021/04/05 05:35:18;;;;;;;31.23;18.25;;;7.10;99.90;;;;;;4924212;29;20203;-83
2021/04/05 05:37:47;;;;;;;46.83;20.95;;;7.00;99.90;;;;;;4939666;29;20188;-81
2021/04/05 05:40:25;;;;;;;31.05;17.98;;;6.90;99.90;;;;;;4952706;28;20284;-84
2021/04/05 05:43:25;;;;;;;36.28;18.75;;;7.00;99.90;;;;;;4937511;29;20224;-83
2021/04/05 05:45:56;;;;;;;32.65;19.00;;;7.00;99.90;;;;;;4937220;29;20197;-82
2021/04/05 05:48:52;;;;;;;34.10;18.48;;;6.90;99.90;;;;;;4936503;29;20318;-82
2021/04/05 05:51:40;;;;;;;34.23;19.30;;;7.00;99.90;;;;;;4945599;29;20200;-82
2021/04/05 05:54:24;;;;;;;36.40;19.37;;;6.90;99.90;;;;;;4936095;29;20803;-82
2021/04/05 05:57:03;;;;;;;29.00;18.23;;;6.90;99.90;;;;;;4933260;29;20506;-83
2021/04/05 05:59:48;;;;;;;31.42;18.33;;;6.90;99.90;;;;;;4956211;29;20416;-83
2021/04/05 06:02:55;;;;;;;34.47;20.05;;;6.90;99.90;;;;;;4950851;29;20206;-83
2021/04/05 06:05:55;;;;;;;35.30;20.23;;;6.80;99.90;;;;;;4956321;29;20172;-83
2021/04/05 06:08:43;;;;;;;37.78;19.35;;;6.80;99.90;;;;;;4954976;29;20649;-84
2021/04/05 06:11:40;;;;;;;31.83;18.60;;;6.90;99.90;;;;;;4950479;29;20264;-83
2021/04/05 06:14:27;;;;;;;27.10;17.20;;;6.80;99.90;;;;;;4953101;29;20816;-83
2021/04/05 06:16:59;;;;;;;35.15;19.85;;;6.80;99.90;;;;;;4924511;29;20520;-83
2021/04/05 06:19:34;;;;;;;35.80;20.35;;;6.90;99.90;;;;;;4922212;29;20192;-83
2021/04/05 06:22:20;;;;;;;34.87;19.23;;;6.90;99.90;;;;;;4926030;29;20228;-84
2021/04/05 06:25:03;;;;;;;33.67;17.90;;;6.80;99.90;;;;;;4927440;29;20440;-83
2021/04/05 06:27:41;;;;;;;45.70;18.37;;;6.90;99.90;;;;;;4936544;29;20452;-83
2021/04/05 06:30:13;;;;;;;34.78;18.67;;;6.90;99.90;;;;;;4953066;29;21008;-83
2021/04/05 06:33:05;;;;;;;41.75;18.88;;;6.90;99.90;;;;;;4952550;29;20188;-84
2021/04/05 06:35:58;;;;;;;37.95;19.83;;;6.90;99.90;;;;;;4942435;29;20210;-84
2021/04/05 06:38:31;;;;;;;38.90;19.90;;;6.90;99.90;;;;;;4936342;29;20177;-83
2021/04/05 06:41:11;;;;;;;32.47;18.73;;;6.90;99.90;;;;;;4952011;29;20504;-83
2021/04/05 06:44:06;;;;;;;36.13;19.50;;;6.90;99.90;;;;;;4916154;29;20245;-84
2021/04/05 06:46:52;;;;;;;36.23;20.17;;;6.90;99.90;;;;;;4955273;29;20801;-87
2021/04/05 06:49:37;;;;;;;39.72;20.25;;;6.90;99.90;;;;;;4938391;29;20941;-89
2021/04/05 06:52:06;;;;;;;36.42;20.60;;;6.80;99.90;;;;;;4940261;29;20240;-88
2021/04/05 06:55:04;;;;;;;40.72;21.45;;;6.80;99.90;;;;;;4920629;29;20255;-90
2021/04/05 06:57:51;;;;;;;37.10;21.10;;;6.90;99.90;;;;;;4919966;29;20176;-84
2021/04/05 07:00:35;;;;;;;35.03;20.40;;;6.90;99.90;;;;;;4935708;29;20426;-84
2021/04/05 07:03:24;;;;;;;33.97;20.93;;;6.90;99.90;;;;;;4935608;29;20631;-86
2021/04/05 07:06:27;;;;;;;35.88;20.50;;;6.90;99.90;;;;;;4927931;29;20449;-84
2021/04/05 07:09:17;;;;;;;29.60;19.85;;;6.90;99.90;;;;;;4933882;29;20658;-85
2021/04/05 07:12:06;;;;;;;47.25;23.00;;;6.90;99.90;;;;;;4923337;29;20197;-87
2021/04/05 07:14:42;;;;;;;41.13;23.07;;;6.90;99.90;;;;;;4935808;29;20626;-85
2021/04/05 07:17:21;;;;;;;42.23;22.43;;;6.90;99.90;;;;;;4918697;29;20838;-86
2021/04/05 07:20:05;;;;;;;41.55;22.35;;;6.90;99.90;;;;;;4949902;29;20451;-87
2021/04/05 07:22:43;;;;;;;40.67;22.50;;;6.90;99.90;;;;;;4941571;29;20222;-87
2021/04/05 07:26:00;;;;;;;36.80;21.80;;;6.90;99.90;;;;;;4942746;29;20441;-89
2021/04/05 07:28:51;;;;;;;46.15;22.88;;;6.90;99.90;;;;;;4881526;29;20433;-86
2021/04/05 07:31:43;;;;;;;37.47;23.30;;;6.90;99.90;;;;;;4897194;29;20262;-88
2021/04/05 07:34:29;;;;;;;42.03;24.25;;;6.90;99.90;;;;;;4935354;29;20433;-88
2021/04/05 07:37:04;;;;;;;46.60;23.77;;;6.80;99.90;;;;;;4939490;29;20266;-90
2021/04/05 07:39:37;;;;;;;39.20;23.75;;;6.80;99.90;;;;;;4956688;29;20174;-89
2021/04/05 07:42:21;;;;;;;40.53;24.60;;;6.80;99.90;;;;;;4955128;29;20345;-87
2021/04/05 07:45:23;;;;;;;28.25;16.33;;;6.80;99.90;;;;;;4930937;29;20895;-86
2021/04/05 07:48:30;;;;;;;20.13;11.10;;;6.80;99.90;;;;;;4945903;29;20657;-87
2021/04/05 07:51:16;;;;;;;13.07;7.50;;;6.50;99.90;;;;;;4953794;29;20443;-87
2021/04/05 07:53:57;;;;;;;9.60;6.27;;;6.40;99.90;;;;;;4953047;29;20519;-84
2021/04/05 07:56:31;;;;;;;13.23;7.20;;;6.20;99.90;;;;;;4952045;29;20443;-82
2021/04/05 07:59:38;;;;;;;10.88;6.68;;;6.10;99.90;;;;;;4954489;29;20183;-87
2021/04/05 08:02:32;;;;;;;12.65;6.72;;;6.00;99.90;;;;;;4914419;29;20648;-88
2021/04/05 08:05:27;;;;;;;12.93;7.75;;;5.90;99.90;;;;;;4929323;29;20188;-86
2021/04/05 08:07:56;;;;;;;8.82;6.85;;;5.90;99.90;;;;;;4923755;29;20614;-85
2021/04/05 08:10:37;;;;;;;12.15;7.63;;;5.90;99.90;;;;;;4934556;29;20228;-86
2021/04/05 08:13:26;;;;;;;7.40;4.78;;;5.90;99.90;;;;;;4921147;29;20177;-84
2021/04/05 08:16:20;;;;;;;10.68;5.68;;;5.80;99.90;;;;;;4918706;29;20217;-84
2021/04/05 08:19:06;;;;;;;12.43;5.85;;;5.80;99.90;;;;;;4925803;29;20201;-84
2021/04/05 08:22:09;;;;;;;14.63;6.38;;;5.80;99.90;;;;;;4938872;29;20235;-84
2021/04/05 08:24:45;;;;;;;13.10;7.93;;;5.80;99.90;;;;;;4925315;29;20673;-85
2021/04/05 08:27:27;;;;;;;11.15;6.78;;;5.80;99.90;;;;;;4902109;29;20663;-84
2021/04/05 08:30:04;;;;;;;10.18;5.82;;;5.90;99.90;;;;;;4918180;29;20252;-83
2021/04/05 08:32:45;;;;;;;7.13;4.32;;;5.90;99.90;;;;;;4918158;29;20200;-83
2021/04/05 08:35:39;;;;;;;7.35;4.25;;;5.80;99.90;;;;;;4918475;29;20248;-83
2021/04/05 08:41:32;;;;;;;6.55;5.30;;;5.80;99.90;;;;;;4885239;29;20190;-84
2021/04/05 08:44:17;;;;;;;7.78;5.00;;;5.80;99.90;;;;;;4900706;29;20251;-83
2021/04/05 08:46:47;;;;;;;7.82;5.07;;;5.80;99.90;;;;;;4917770;29;20573;-84
2021/04/05 08:49:18;;;;;;;7.63;4.30;;;5.80;99.90;;;;;;4917653;29;20678;-83
2021/04/05 08:51:57;;;;;;;6.50;3.08;;;5.80;99.90;;;;;;4917520;29;20193;-83
2021/04/05 08:54:29;;;;;;;5.32;3.22;;;5.80;99.90;;;;;;4917900;29;20212;-82
2021/04/05 08:57:27;;;;;;;4.68;2.97;;;5.70;99.90;;;;;;4918054;29;20186;-83
2021/04/05 09:00:24;;;;;;;4.40;2.22;;;5.60;99.90;;;;;;4917583;29;20228;-83
2021/04/05 09:03:04;;;;;;;3.28;1.88;;;5.00;99.90;;;;;;4916230;29;20701;-81
2021/04/05 09:05:33;;;;;;;4.00;1.52;;;4.50;99.90;;;;;;4917538;29;20220;-84
2021/04/05 09:08:12;;;;;;;2.97;1.48;;;4.30;99.90;;;;;;4917877;29;20181;-84
2021/04/05 09:10:58;;;;;;;7.90;2.45;;;4.10;99.90;;;;;;4900705;29;20231;-83
2021/04/05 09:13:49;;;;;;;2.22;1.30;;;4.10;99.90;;;;;;4916478;29;20201;-83
2021/04/05 09:16:40;;;;;;;3.38;1.65;;;4.20;99.90;;;;;;4900215;29;20268;-85
2021/04/05 09:19:49;;;;;;;9.55;1.52;;;4.10;99.90;;;;;;4917039;29;20519;-86
2021/04/05 09:22:51;;;;;;;9.85;2.33;;;4.20;99.90;;;;;;4900118;29;20231;-86
2021/04/05 09:25:31;;;;;;;4.03;1.70;;;4.30;99.90;;;;;;4928933;29;20652;-86
2021/04/05 09:28:15;;;;;;;3.10;2.45;;;4.30;99.90;;;;;;4934922;29;20273;-87
2021/04/05 09:30:55;;;;;;;2.60;1.60;;;4.30;99.90;;;;;;4919263;29;20235;-85
2021/04/05 09:33:52;;;;;;;4.18;2.40;;;4.40;99.90;;;;;;4920450;29;20618;-82
2021/04/05 09:36:37;;;;;;;4.57;2.40;;;4.40;99.90;;;;;;4935104;29;20180;-85
2021/04/05 09:39:08;;;;;;;10.73;1.75;;;4.40;99.90;;;;;;4918870;29;20572;-84
2021/04/05 09:42:05;;;;;;;7.05;2.25;;;4.10;99.90;;;;;;4919206;29;20637;-86
2021/04/05 09:44:49;;;;;;;5.00;1.73;;;4.00;99.90;;;;;;4933125;29;20701;-85
2021/04/05 09:47:27;;;;;;;10.13;2.92;;;3.80;99.90;;;;;;4935926;29;20259;-82
2021/04/05 09:50:12;;;;;;;7.50;1.60;;;3.80;99.90;;;;;;4903279;29;20219;-83
2021/04/05 09:53:01;;;;;;;7.00;2.85;;;3.80;99.90;;;;;;4933939;29;20192;-83
2021/04/05 09:55:36;;;;;;;12.50;3.95;;;3.90;99.90;;;;;;4935214;29;20204;-84
2021/04/05 09:58:14;;;;;;;11.00;4.18;;;3.90;99.90;;;;;;4910879;29;20187;-82
2021/04/05 10:00:46;;;;;;;15.35;7.93;;;4.00;99.90;;;;;;4934015;29;20206;-81
2021/04/05 10:03:17;;;;;;;7.60;5.97;;;4.10;99.90;;;;;;4928091;29;20223;-83
2021/04/05 10:05:45;;;;;;;6.82;4.00;;;4.20;99.90;;;;;;4919341;29;20251;-82
2021/04/05 10:08:20;;;;;;;8.70;3.05;;;4.30;99.90;;;;;;4919226;29;20187;-81
2021/04/05 10:10:49;;;;;;;18.92;5.35;;;4.40;99.90;;;;;;4918643;29;20197;-83
2021/04/05 10:13:20;;;;;;;10.50;2.72;;;4.40;99.90;;;;;;4931249;29;20267;-84
2021/04/05 10:15:55;;;;;;;10.05;3.38;;;4.40;99.90;;;;;;4910861;29;20522;-83
2021/04/05 10:18:22;;;;;;;11.82;3.13;;;4.40;99.90;;;;;;4924228;29;20195;-83
2021/04/05 10:20:51;;;;;;;10.70;3.67;;;4.40;99.90;;;;;;4918227;29;20633;-84
2021/04/05 10:23:23;;;;;;;9.95;2.80;;;4.40;99.90;;;;;;4935077;29;20284;-85
2021/04/05 10:26:01;;;;;;;11.65;3.45;;;4.50;99.90;;;;;;4902061;29;20183;-85
2021/04/05 10:28:32;;;;;;;12.77;3.47;;;4.70;99.90;;;;;;4918772;29;20204;-90
2021/04/05 10:31:03;;;;;;;13.20;4.25;;;4.80;99.90;;;;;;4894668;29;20615;-83
2021/04/05 10:33:35;;;;;;;8.30;2.88;;;4.90;99.90;;;;;;4932272;29;20227;-88
2021/04/05 10:36:24;;;;;;;10.40;3.28;;;5.00;99.90;;;;;;4935106;29;20799;-82
2021/04/05 10:38:53;;;;;;;7.00;3.22;;;5.10;99.90;;;;;;4934041;29;20227;-83
2021/04/05 10:41:23;;;;;;;8.82;3.28;;;5.20;99.90;;;;;;4935234;29;20235;-82
2021/04/05 10:43:50;;;;;;;9.48;3.78;;;5.20;99.90;;;;;;4930306;29;20180;-83
2021/04/05 10:46:19;;;;;;;8.88;2.75;;;5.20;99.90;;;;;;4934348;29;20641;-82
2021/04/05 10:49:09;;;;;;;5.15;1.85;;;5.20;99.90;;;;;;4909872;29;20209;-85
2021/04/05 10:52:14;;;;;;;2.63;1.42;;;4.80;99.90;;;;;;4922107;29;20599;-85
2021/04/05 10:54:41;;;;;;;2.95;1.10;;;4.20;99.90;;;;;;4920811;29;20282;-83
2021/04/05 10:57:13;;;;;;;3.05;1.55;;;4.00;99.90;;;;;;4926942;29;20200;-83
2021/04/05 11:00:01;;;;;;;1.80;1.50;;;3.90;99.90;;;;;;4936588;29;20250;-85
2021/04/05 11:02:36;;;;;;;4.15;1.63;;;4.10;99.90;;;;;;4918744;29;20188;-86
2021/04/05 11:05:17;;;;;;;2.00;1.20;;;4.00;99.90;;;;;;4919679;29;20172;-87
2021/04/05 11:07:57;;;;;;;2.95;1.30;;;3.70;99.90;;;;;;4937612;29;20180;-89
2021/04/05 11:10:28;;;;;;;2.03;1.27;;;3.70;99.90;;;;;;4935530;29;20299;-87
2021/04/05 11:13:11;;;;;;;2.22;1.27;;;3.60;99.90;;;;;;4935207;29;20904;-86
2021/04/05 11:15:42;;;;;;;4.50;1.25;;;3.60;99.90;;;;;;4936519;29;20232;-85
2021/04/05 11:18:11;;;;;;;2.08;1.45;;;3.70;99.90;;;;;;4919851;29;20197;-85
2021/04/05 11:20:41;;;;;;;5.07;1.30;;;3.80;99.90;;;;;;4936244;29;20236;-85
2021/04/05 11:23:15;;;;;;;3.55;1.80;;;3.90;99.90;;;;;;4936311;29;20176;-86
2021/04/05 11:25:47;;;;;;;1.92;1.58;;;4.10;99.90;;;;;;4935891;29;20655;-86
2021/04/05 11:28:22;;;;;;;2.70;1.50;;;4.20;99.90;;;;;;4935766;29;20176;-86
2021/04/05 11:30:56;;;;;;;6.80;1.60;;;4.30;99.90;;;;;;4918125;29;20637;-86
2021/04/05 11:33:28;;;;;;;5.78;1.77;;;4.40;99.90;;;;;;4934054;29;20270;-86
2021/04/05 11:35:58;;;;;;;3.67;1.70;;;4.60;99.90;;;;;;4917670;29;20211;-85
2021/04/05 11:38:25;;;;;;;7.30;1.95;;;4.70;99.90;;;;;;4904427;29;20617;-84
2021/04/05 11:41:01;;;;;;;4.15;1.90;;;4.90;99.90;;;;;;4944835;29;20192;-88
2021/04/05 11:43:31;;;;;;;3.42;2.20;;;5.00;99.90;;;;;;4936868;29;20251;-86
2021/04/05 11:46:05;;;;;;;4.43;2.75;;;5.20;99.90;;;;;;4935543;29;20605;-83
2021/04/05 11:48:31;;;;;;;3.45;2.25;;;5.30;99.90;;;;;;4927148;29;20212;-87
2021/04/05 11:50:57;;;;;;;2.42;1.80;;;5.50;99.90;;;;;;4944583;29;20191;-85
2021/04/05 11:53:50;;;;;;;9.18;2.17;;;5.40;99.90;;;;;;4912551;29;20185;-83
2021/04/05 11:56:28;;;;;;;8.40;3.15;;;5.00;99.90;;;;;;4935778;29;20235;-85
2021/04/05 11:59:21;;;;;;;9.13;3.45;;;4.30;99.90;;;;;;4919991;29;20250;-85
2021/04/05 12:01:59;;;;;;;6.10;2.20;;;3.80;99.90;;;;;;4931941;29;20279;-83
2021/04/05 12:04:39;;;;;;;4.82;1.70;;;3.60;99.90;;;;;;4938202;29;20200;-85
2021/04/05 12:07:21;;;;;;;9.20;1.58;;;3.50;99.90;;;;;;4922502;29;20240;-84
2021/04/05 12:09:56;;;;;;;4.38;2.70;;;3.60;99.90;;;;;;4940231;29;20208;-85
2021/04/05 12:12:56;;;;;;;8.93;3.65;;;3.90;99.90;;;;;;4910077;29;20172;-82
2021/04/05 12:15:33;;;;;;;10.63;3.50;;;4.30;99.90;;;;;;4928948;29;20732;-85
2021/04/05 12:18:03;;;;;;;10.13;3.78;;;4.40;99.90;;;;;;4940627;29;20812;-85
2021/04/05 12:20:32;;;;;;;8.57;2.60;;;4.50;99.90;;;;;;4923362;29;20568;-86
2021/04/05 12:23:01;;;;;;;5.15;2.58;;;4.50;99.90;;;;;;4933430;29;20200;-86
2021/04/05 12:25:44;;;;;;;13.25;2.60;;;4.60;99.90;;;;;;4937015;29;20188;-86
2021/04/05 12:28:13;;;;;;;6.43;2.75;;;4.80;99.90;;;;;;4909600;29;20202;-84
2021/04/05 12:30:40;;;;;;;9.63;2.70;;;5.00;99.90;;;;;;4951079;29;20564;-85
2021/04/05 12:33:12;;;;;;;5.03;2.03;;;5.00;99.90;;;;;;4939905;29;20184;-85
2021/04/05 12:35:42;;;;;;;5.97;2.80;;;4.90;99.90;;;;;;4939202;29;20572;-84
2021/04/05 12:38:12;;;;;;;4.40;1.95;;;4.80;99.90;;;;;;4938574;29;20180;-83
2021/04/05 12:40:40;;;;;;;6.25;1.90;;;4.30;99.90;;;;;;4922227;29;20189;-86
2021/04/05 12:43:14;;;;;;;7.60;2.25;;;3.90;99.90;;;;;;4938676;29;20210;-83
2021/04/05 12:45:55;;;;;;;8.85;2.40;;;3.70;99.90;;;;;;4939748;29;20618;-84
2021/04/05 12:48:30;;;;;;;3.47;1.90;;;4.00;99.90;;;;;;4929784;29;20234;-84
2021/04/05 12:51:01;;;;;;;5.03;2.00;;;4.00;99.90;;;;;;4948835;28;20203;-84
2021/04/05 12:53:30;;;;;;;3.15;1.75;;;3.90;99.90;;;;;;4938607;29;20228;-86
2021/04/05 12:55:58;;;;;;;3.40;1.75;;;3.80;99.90;;;;;;4948697;29;20184;-83
2021/04/05 12:58:35;;;;;;;6.00;1.80;;;3.70;99.90;;;;;;4957925;29;20190;-83
2021/04/05 13:01:05;;;;;;;8.38;3.20;;;3.30;99.90;;;;;;4955355;29;20230;-84
2021/04/05 13:03:43;;;;;;;5.25;2.80;;;3.10;99.90;;;;;;4949055;29;20180;-82
2021/04/05 13:06:18;;;;;;;10.05;2.72;;;2.90;99.90;;;;;;4937456;29;20275;-83
2021/04/05 13:09:05;;;;;;;4.85;2.17;;;3.00;99.90;;;;;;4937732;29;20212;-84
2021/04/05 13:11:52;;;;;;;6.30;1.73;;;2.80;99.90;;;;;;4906157;29;20184;-83
2021/04/05 13:14:20;;;;;;;6.00;2.17;;;3.00;99.90;;;;;;4933334;29;20180;-84
2021/04/05 13:17:02;;;;;;;9.73;3.60;;;3.10;99.90;;;;;;4937458;29;20203;-84
2021/04/05 13:19:48;;;;;;;9.65;3.00;;;3.60;99.90;;;;;;4919691;29;20197;-84
2021/04/05 13:22:16;;;;;;;12.93;3.63;;;3.80;99.90;;;;;;4933693;29;20256;-84
2021/04/05 13:24:53;;;;;;;10.82;3.50;;;4.30;99.90;;;;;;4921489;29;20201;-84
2021/04/05 13:27:26;;;;;;;5.45;2.90;;;5.00;99.90;;;;;;4936912;29;20188;-83
2021/04/05 13:29:58;;;;;;;8.10;3.80;;;5.60;99.90;;;;;;4936264;29;20265;-85
2021/04/05 13:32:40;;;;;;;6.00;3.15;;;6.10;99.90;;;;;;4930781;29;20276;-83